Ana Sayfa
METAR-TAF:

METAR-TAF

Havaalanları :

Killeen, Teksas, Amerika Birleşik Devletleri

Enlem: 31-05N, Boylam: 097-41W, yükseklik: 258 m

Güncel hava durumu gözlemi

Rapor saat 19:56 UTC de 32 dakika önce yapıldı.
Rüzgar kuzeybatıdan 7 kt
Sıcaklık 21°C
Nem 33%
Basınç 1010 hPa
Görüş mesafesi: 16.1 km
Açık gökyüzü

METAR: KILE 131956Z AUTO 31007KT 10SM CLR 21/04 A2983 RMK AO2 SLP092 T02110044

Saat: 14:28 (20:28 UTC)


TAF: eksik

4.000'den fazla havaalanı için hava durumu gözlemleri ve tahminleri (METAR ve TAF raporları).

Kullanılabilir istasyonlar harita üzerinde sarı ve kırmızı noktalarla gösterilir.

İstasyonun adını görmek için fareyi noktanın üzerinde gezdirin.

Sonrasında hava gözlem ve tahminlerini görmek için tıklayın.

Haritayı değiştirmek için: yaklaştırmak için siyah artı işaretli yeşil düğmeye ve uzaklaştırmak için de eksi işaretli düğmeye hızla tıklayın; bitişik haritalar için yeşil okları kullanın.


METAR-TAF: